Time;durP1;ratioP1;P1;durP2;ratioP2;P2;SDS_P1;SDS_P2;PMS_P1;PMS_P2;Temp;Humidity;BMP_temperature;BMP_pressure;BME280_temperature;BME280_humidity;BME280_pressure;Samples;Min_cycle;Max_cycle;Signal;HPM_P1;HPM_P2
2023/06/08 00:00:50;;;;;;;20.23;10.68;;;;;;;;;;5050239;28;25085;-74
2023/06/08 00:03:17;;;;;;;20.75;9.88;;;;;;;;;;5040833;28;25097;-75
2023/06/08 00:05:47;;;;;;;17.63;9.82;;;;;;;;;;5041106;28;25056;-72
2023/06/08 00:08:13;;;;;;;16.73;9.95;;;;;;;;;;5058259;28;25143;-73
2023/06/08 00:10:45;;;;;;;24.33;10.45;;;;;;;;;;5056936;28;25073;-72
2023/06/08 00:13:11;;;;;;;18.65;9.18;;;;;;;;;;5042122;28;25124;-70
2023/06/08 00:15:39;;;;;;;18.67;9.40;;;;;;;;;;5059177;28;25056;-72
2023/06/08 00:18:07;;;;;;;20.58;9.52;;;;;;;;;;5057465;28;25063;-73
2023/06/08 00:20:34;;;;;;;28.80;9.73;;;;;;;;;;5062784;28;25154;-72
2023/06/08 00:23:00;;;;;;;29.10;9.73;;;;;;;;;;5064136;28;25072;-74
2023/06/08 00:25:26;;;;;;;28.60;9.98;;;;;;;;;;5063166;28;25068;-72
2023/06/08 00:27:52;;;;;;;22.77;10.30;;;;;;;;;;5059874;28;25139;-72
2023/06/08 00:30:18;;;;;;;24.27;9.77;;;;;;;;;;5061538;28;25090;-72
2023/06/08 00:32:45;;;;;;;16.90;9.18;;;;;;;;;;5059885;28;25063;-73
2023/06/08 00:35:11;;;;;;;20.95;9.52;;;;;;;;;;5043835;28;25145;-73
2023/06/08 00:37:37;;;;;;;17.10;9.85;;;;;;;;;;5063667;28;25112;-71
2023/06/08 00:40:06;;;;;;;21.40;10.20;;;;;;;;;;5067029;28;25066;-71
2023/06/08 00:42:32;;;;;;;18.70;9.02;;;;;;;;;;5054333;28;25047;-74
2023/06/08 00:44:58;;;;;;;20.88;9.30;;;;;;;;;;5077093;28;25083;-72
2023/06/08 00:47:25;;;;;;;21.48;10.55;;;;;;;;;;5072372;28;25136;-72
2023/06/08 00:49:51;;;;;;;22.60;10.15;;;;;;;;;;5067284;28;25061;-71
2023/06/08 00:52:18;;;;;;;23.08;9.85;;;;;;;;;;5065676;28;25076;-73
2023/06/08 00:54:48;;;;;;;21.40;9.82;;;;;;;;;;5067994;28;25070;-73
2023/06/08 00:57:18;;;;;;;32.15;10.93;;;;;;;;;;5066550;28;25148;-72
2023/06/08 00:59:49;;;;;;;20.58;10.27;;;;;;;;;;5060273;28;25070;-72
2023/06/08 01:02:16;;;;;;;18.83;9.93;;;;;;;;;;5046524;28;25139;-72
2023/06/08 01:04:42;;;;;;;24.50;10.40;;;;;;;;;;5062406;28;25139;-71
2023/06/08 01:07:19;;;;;;;27.58;10.05;;;;;;;;;;5061600;28;25053;-72
2023/06/08 01:10:08;;;;;;;28.30;10.40;;;;;;;;;;5065736;28;25064;-74
2023/06/08 01:12:48;;;;;;;20.48;10.35;;;;;;;;;;5051119;28;25076;-68
2023/06/08 01:15:17;;;;;;;21.85;9.70;;;;;;;;;;5064238;28;25065;-73
2023/06/08 01:17:47;;;;;;;23.55;10.40;;;;;;;;;;5064269;28;25159;-72
2023/06/08 01:20:32;;;;;;;21.00;10.88;;;;;;;;;;5062062;28;25051;-74
2023/06/08 01:23:27;;;;;;;21.27;9.52;;;;;;;;;;5059276;28;25048;-72
2023/06/08 01:25:55;;;;;;;20.63;9.80;;;;;;;;;;5047703;28;25132;-73
2023/06/08 01:28:22;;;;;;;28.13;10.00;;;;;;;;;;5059772;28;25151;-73
2023/06/08 01:30:48;;;;;;;20.90;10.27;;;;;;;;;;5061962;28;25086;-73
2023/06/08 01:33:25;;;;;;;18.60;9.45;;;;;;;;;;5059011;28;25083;-74
2023/06/08 01:36:00;;;;;;;23.02;10.50;;;;;;;;;;5059593;28;25054;-73
2023/06/08 01:38:35;;;;;;;23.13;9.73;;;;;;;;;;5059133;28;25150;-73
2023/06/08 01:41:06;;;;;;;22.67;10.52;;;;;;;;;;5062843;28;25133;-76
2023/06/08 01:43:33;;;;;;;20.00;10.45;;;;;;;;;;5063406;28;25097;-71
2023/06/08 01:46:00;;;;;;;27.10;10.82;;;;;;;;;;5065599;28;25084;-74
2023/06/08 01:48:26;;;;;;;29.33;11.57;;;;;;;;;;5062130;28;25064;-75
2023/06/08 01:50:53;;;;;;;21.00;10.95;;;;;;;;;;5062905;28;25071;-75
2023/06/08 01:53:19;;;;;;;26.25;11.65;;;;;;;;;;5062378;28;25077;-72
2023/06/08 01:55:49;;;;;;;22.08;9.82;;;;;;;;;;5049511;28;25120;-71
2023/06/08 01:58:15;;;;;;;24.38;9.50;;;;;;;;;;5064544;28;25061;-74
2023/06/08 02:00:41;;;;;;;20.05;10.65;;;;;;;;;;5066653;28;25068;-71
2023/06/08 02:03:07;;;;;;;21.23;10.23;;;;;;;;;;5060494;28;25105;-76
2023/06/08 02:05:33;;;;;;;22.20;11.00;;;;;;;;;;5061346;28;25100;-74
2023/06/08 02:07:59;;;;;;;19.80;10.80;;;;;;;;;;5059536;28;25058;-73
2023/06/08 02:10:25;;;;;;;21.13;9.70;;;;;;;;;;5061836;28;25070;-74
2023/06/08 02:12:51;;;;;;;25.05;11.18;;;;;;;;;;5060607;28;25081;-73
2023/06/08 02:15:17;;;;;;;22.88;10.60;;;;;;;;;;5058819;28;25059;-73
2023/06/08 02:17:43;;;;;;;25.50;11.27;;;;;;;;;;5057895;28;25063;-74
2023/06/08 02:20:09;;;;;;;19.38;10.55;;;;;;;;;;5054771;28;25065;-72
2023/06/08 02:22:36;;;;;;;27.40;10.38;;;;;;;;;;5058897;28;25059;-73
2023/06/08 02:25:04;;;;;;;27.02;10.20;;;;;;;;;;5057942;28;25068;-79
2023/06/08 02:27:30;;;;;;;23.80;11.75;;;;;;;;;;5059602;28;25100;-73
2023/06/08 02:29:56;;;;;;;18.23;11.02;;;;;;;;;;5058685;28;25065;-73
2023/06/08 02:32:23;;;;;;;20.80;10.48;;;;;;;;;;5055548;28;25116;-72
2023/06/08 02:34:55;;;;;;;21.75;11.57;;;;;;;;;;5034500;28;25077;-73
2023/06/08 02:37:22;;;;;;;25.27;11.05;;;;;;;;;;5040070;28;25177;-78
2023/06/08 02:39:48;;;;;;;24.95;11.35;;;;;;;;;;5043312;28;25154;-74
2023/06/08 02:42:14;;;;;;;26.77;11.85;;;;;;;;;;5040358;28;25075;-71
2023/06/08 02:44:48;;;;;;;27.58;10.85;;;;;;;;;;5042077;28;25079;-73
2023/06/08 02:47:15;;;;;;;32.50;12.35;;;;;;;;;;5040097;28;25084;-73
2023/06/08 02:49:41;;;;;;;24.70;10.57;;;;;;;;;;5041314;28;25063;-73
2023/06/08 02:52:07;;;;;;;26.23;11.00;;;;;;;;;;5040890;28;25047;-72
2023/06/08 02:54:33;;;;;;;30.52;12.07;;;;;;;;;;5043498;28;25094;-74
2023/06/08 02:56:59;;;;;;;22.88;10.98;;;;;;;;;;5048562;28;25120;-74
2023/06/08 02:59:27;;;;;;;23.67;10.93;;;;;;;;;;5053172;28;25046;-72
2023/06/08 03:01:53;;;;;;;26.52;11.10;;;;;;;;;;5042392;28;25054;-72
2023/06/08 03:04:23;;;;;;;29.48;11.30;;;;;;;;;;5041399;28;25121;-72
2023/06/08 03:06:58;;;;;;;24.38;11.65;;;;;;;;;;5044618;28;25132;-72
2023/06/08 03:09:25;;;;;;;31.38;12.73;;;;;;;;;;5046528;28;25077;-73
2023/06/08 03:11:51;;;;;;;30.08;10.75;;;;;;;;;;5053438;28;25066;-74
2023/06/08 03:14:18;;;;;;;18.65;11.48;;;;;;;;;;5038713;28;25076;-74
2023/06/08 03:16:45;;;;;;;28.20;11.45;;;;;;;;;;5041268;28;25053;-70
2023/06/08 03:19:12;;;;;;;22.92;12.35;;;;;;;;;;5040368;28;25133;-71
2023/06/08 03:21:38;;;;;;;23.60;11.13;;;;;;;;;;5046013;28;25163;-72
2023/06/08 03:24:05;;;;;;;27.85;11.60;;;;;;;;;;5043469;28;25079;-75
2023/06/08 03:26:31;;;;;;;22.58;11.38;;;;;;;;;;5039010;28;25071;-76
2023/06/08 03:28:57;;;;;;;31.17;12.65;;;;;;;;;;5035798;28;25148;-72
2023/06/08 03:31:24;;;;;;;23.30;12.27;;;;;;;;;;5037934;28;25078;-71
2023/06/08 03:33:50;;;;;;;23.52;11.85;;;;;;;;;;5037288;28;25047;-72
2023/06/08 03:36:16;;;;;;;22.90;11.63;;;;;;;;;;5038368;28;25118;-73
2023/06/08 03:38:42;;;;;;;20.77;11.07;;;;;;;;;;5037848;28;25115;-74
2023/06/08 03:41:08;;;;;;;31.40;12.60;;;;;;;;;;5038914;28;25141;-72
2023/06/08 03:43:37;;;;;;;22.20;13.00;;;;;;;;;;5038641;28;25072;-72
2023/06/08 03:46:03;;;;;;;24.83;11.70;;;;;;;;;;5036434;28;25082;-71
2023/06/08 03:48:29;;;;;;;25.45;11.35;;;;;;;;;;5052880;28;25147;-73
2023/06/08 03:50:55;;;;;;;26.23;11.65;;;;;;;;;;5038247;28;25085;-75
2023/06/08 03:53:21;;;;;;;23.50;12.05;;;;;;;;;;5036915;28;25077;-74
2023/06/08 03:55:47;;;;;;;30.77;12.93;;;;;;;;;;5044084;28;25063;-74
2023/06/08 03:58:13;;;;;;;28.05;12.10;;;;;;;;;;5044221;28;25061;-71
2023/06/08 04:00:39;;;;;;;25.17;12.65;;;;;;;;;;5044200;28;25083;-71
2023/06/08 04:03:05;;;;;;;31.70;12.30;;;;;;;;;;5042836;28;25073;-75
2023/06/08 04:05:33;;;;;;;25.45;11.88;;;;;;;;;;5044887;28;25053;-74
2023/06/08 04:08:02;;;;;;;31.23;12.57;;;;;;;;;;5042427;28;25066;-74
2023/06/08 04:10:28;;;;;;;24.00;11.57;;;;;;;;;;5052807;28;25073;-72
2023/06/08 04:12:54;;;;;;;23.55;11.70;;;;;;;;;;5055370;28;25101;-73
2023/06/08 04:15:20;;;;;;;30.15;12.18;;;;;;;;;;5060583;28;25080;-71
2023/06/08 04:17:48;;;;;;;25.20;12.88;;;;;;;;;;5045747;28;25083;-71
2023/06/08 04:20:15;;;;;;;23.85;12.77;;;;;;;;;;5042657;28;25051;-72
2023/06/08 04:22:41;;;;;;;26.45;12.27;;;;;;;;;;5048626;28;25072;-74
2023/06/08 04:25:07;;;;;;;29.35;13.23;;;;;;;;;;5059700;28;25066;-71
2023/06/08 04:27:34;;;;;;;28.75;14.35;;;;;;;;;;5055924;28;25087;-72
2023/06/08 04:30:00;;;;;;;28.77;12.70;;;;;;;;;;5055162;28;25056;-72
2023/06/08 04:32:26;;;;;;;32.40;14.05;;;;;;;;;;5040314;28;25065;-74
2023/06/08 04:34:52;;;;;;;35.05;12.80;;;;;;;;;;5042926;28;25145;-73
2023/06/08 04:37:18;;;;;;;26.55;12.60;;;;;;;;;;5039402;28;25059;-72
2023/06/08 04:39:45;;;;;;;28.05;13.18;;;;;;;;;;5041007;28;25068;-72
2023/06/08 04:42:11;;;;;;;26.50;13.27;;;;;;;;;;5039608;28;25055;-71
2023/06/08 04:44:38;;;;;;;27.38;12.95;;;;;;;;;;5042578;28;25057;-73
2023/06/08 04:47:07;;;;;;;27.85;13.27;;;;;;;;;;5040825;28;25130;-74
2023/06/08 04:49:34;;;;;;;24.45;13.48;;;;;;;;;;5045058;28;25059;-73
2023/06/08 04:52:00;;;;;;;26.33;13.38;;;;;;;;;;5040849;28;25170;-71
2023/06/08 04:54:27;;;;;;;30.75;13.60;;;;;;;;;;5036967;28;25142;-71
2023/06/08 04:56:58;;;;;;;30.10;13.30;;;;;;;;;;5040571;28;25089;-71
2023/06/08 04:59:24;;;;;;;32.25;13.02;;;;;;;;;;5039691;28;25087;-75
2023/06/08 05:01:50;;;;;;;20.75;12.23;;;;;;;;;;5039794;28;25093;-72
2023/06/08 05:04:16;;;;;;;30.08;14.07;;;;;;;;;;5038603;28;25151;-70
2023/06/08 05:06:42;;;;;;;31.33;13.77;;;;;;;;;;5045438;28;25062;-72
2023/06/08 05:09:08;;;;;;;29.42;13.55;;;;;;;;;;5044589;28;25150;-73
2023/06/08 05:11:34;;;;;;;30.67;13.57;;;;;;;;;;5042088;28;25099;-71
2023/06/08 05:14:00;;;;;;;24.23;13.38;;;;;;;;;;5038952;28;25074;-73
2023/06/08 05:16:26;;;;;;;28.88;13.30;;;;;;;;;;5038922;28;25051;-71
2023/06/08 05:18:52;;;;;;;29.88;13.63;;;;;;;;;;5038981;28;25065;-72
2023/06/08 05:21:18;;;;;;;26.65;13.57;;;;;;;;;;5053761;28;25108;-70
2023/06/08 05:23:44;;;;;;;28.90;13.48;;;;;;;;;;5034828;28;25107;-72
2023/06/08 05:26:10;;;;;;;28.45;13.77;;;;;;;;;;5034423;28;25112;-72
2023/06/08 05:28:36;;;;;;;27.85;14.50;;;;;;;;;;5033587;28;25059;-70
2023/06/08 05:31:02;;;;;;;34.40;14.43;;;;;;;;;;5034866;28;25074;-70
2023/06/08 05:33:28;;;;;;;22.25;12.70;;;;;;;;;;5035185;28;25064;-72
2023/06/08 05:35:54;;;;;;;36.03;14.38;;;;;;;;;;5038060;28;25071;-72
2023/06/08 05:38:20;;;;;;;29.85;14.23;;;;;;;;;;5040294;28;25089;-73
2023/06/08 05:40:46;;;;;;;23.50;12.48;;;;;;;;;;5036162;28;25103;-71
2023/06/08 05:43:12;;;;;;;24.30;12.75;;;;;;;;;;5036081;28;25150;-73
2023/06/08 05:45:38;;;;;;;25.52;13.75;;;;;;;;;;5037402;28;25075;-74
2023/06/08 05:48:04;;;;;;;22.00;12.93;;;;;;;;;;5037414;28;25058;-73
2023/06/08 05:50:30;;;;;;;32.25;14.00;;;;;;;;;;5040298;28;25072;-73
2023/06/08 05:52:56;;;;;;;27.40;13.07;;;;;;;;;;5040141;28;25066;-70
2023/06/08 05:55:22;;;;;;;27.67;13.27;;;;;;;;;;5041028;28;25084;-71
2023/06/08 05:57:48;;;;;;;29.30;14.15;;;;;;;;;;5039488;28;25073;-74
2023/06/08 06:00:15;;;;;;;26.17;12.82;;;;;;;;;;5047528;28;25070;-73
2023/06/08 06:02:41;;;;;;;21.23;13.32;;;;;;;;;;5040169;28;25064;-74
2023/06/08 06:05:10;;;;;;;25.92;12.65;;;;;;;;;;5036353;28;25168;-74
2023/06/08 06:07:36;;;;;;;24.38;12.65;;;;;;;;;;5041099;28;25079;-74
2023/06/08 06:10:06;;;;;;;31.92;12.88;;;;;;;;;;5046176;28;25139;-74
2023/06/08 06:12:32;;;;;;;28.10;13.27;;;;;;;;;;5050040;28;25057;-75
2023/06/08 06:14:58;;;;;;;23.38;12.32;;;;;;;;;;5060242;28;25071;-72
2023/06/08 06:17:25;;;;;;;20.30;11.98;;;;;;;;;;5046884;28;25063;-73
2023/06/08 06:19:51;;;;;;;25.02;11.80;;;;;;;;;;5038787;28;25051;-74
2023/06/08 06:22:17;;;;;;;21.95;11.63;;;;;;;;;;5034446;28;25061;-75
2023/06/08 06:24:43;;;;;;;21.40;12.20;;;;;;;;;;5036241;28;25068;-74
2023/06/08 06:27:11;;;;;;;26.50;12.32;;;;;;;;;;5033478;28;25099;-71
2023/06/08 06:29:37;;;;;;;19.00;11.25;;;;;;;;;;5035896;28;25108;-73
2023/06/08 06:32:03;;;;;;;23.45;12.02;;;;;;;;;;5033403;28;25108;-73
2023/06/08 06:34:29;;;;;;;24.85;11.73;;;;;;;;;;5034531;28;25064;-75
2023/06/08 06:36:56;;;;;;;21.35;11.55;;;;;;;;;;5037480;28;25046;-74
2023/06/08 06:39:22;;;;;;;19.42;10.68;;;;;;;;;;5034045;28;24983;-74
2023/06/08 06:41:48;;;;;;;17.60;12.02;;;;;;;;;;5034901;28;25127;-72
2023/06/08 06:44:14;;;;;;;22.75;10.82;;;;;;;;;;5034475;28;25166;-76
2023/06/08 06:46:41;;;;;;;20.55;10.75;;;;;;;;;;5036517;28;25104;-75
2023/06/08 06:49:07;;;;;;;24.30;11.98;;;;;;;;;;5035016;28;25106;-78
2023/06/08 06:51:33;;;;;;;21.60;11.00;;;;;;;;;;5035696;28;25111;-76
2023/06/08 06:53:59;;;;;;;25.10;12.05;;;;;;;;;;5034680;28;25161;-73
2023/06/08 06:56:25;;;;;;;21.92;10.95;;;;;;;;;;5034507;28;25090;-75
2023/06/08 06:58:52;;;;;;;21.80;10.73;;;;;;;;;;5043859;28;25089;-76
2023/06/08 07:01:18;;;;;;;21.75;12.23;;;;;;;;;;5048200;28;25165;-75
2023/06/08 07:03:46;;;;;;;27.10;11.43;;;;;;;;;;5039101;28;25146;-74
2023/06/08 07:06:12;;;;;;;23.58;11.68;;;;;;;;;;5035955;28;25067;-75
2023/06/08 07:08:38;;;;;;;16.00;9.88;;;;;;;;;;5035636;28;25170;-75
2023/06/08 07:11:05;;;;;;;17.88;10.30;;;;;;;;;;5033483;28;25045;-74
2023/06/08 07:13:31;;;;;;;18.55;11.65;;;;;;;;;;5021630;28;25054;-75
2023/06/08 07:15:57;;;;;;;17.00;10.05;;;;;;;;;;5033860;28;25141;-76
2023/06/08 07:18:23;;;;;;;22.15;10.90;;;;;;;;;;5036214;28;25085;-73
2023/06/08 07:20:50;;;;;;;21.73;10.65;;;;;;;;;;5041615;28;25109;-77
2023/06/08 07:23:16;;;;;;;20.38;11.80;;;;;;;;;;5025368;28;25062;-75
2023/06/08 07:25:42;;;;;;;18.40;10.27;;;;;;;;;;5049911;28;25070;-72
2023/06/08 07:28:08;;;;;;;16.40;10.60;;;;;;;;;;5054545;28;25070;-77
2023/06/08 07:30:35;;;;;;;18.15;11.07;;;;;;;;;;5059382;28;25100;-75
2023/06/08 07:33:03;;;;;;;21.45;10.35;;;;;;;;;;5057654;28;25070;-72
2023/06/08 07:35:29;;;;;;;31.30;10.63;;;;;;;;;;5058784;28;25135;-75
2023/06/08 07:37:55;;;;;;;20.65;11.02;;;;;;;;;;5056872;28;25279;-73
2023/06/08 07:40:22;;;;;;;17.15;9.98;;;;;;;;;;5058659;28;25162;-75
2023/06/08 07:42:48;;;;;;;23.77;10.93;;;;;;;;;;5056292;28;25081;-75
2023/06/08 07:45:14;;;;;;;22.83;10.48;;;;;;;;;;5050828;28;25059;-75
2023/06/08 07:47:44;;;;;;;20.45;10.52;;;;;;;;;;5046796;28;25114;-75
2023/06/08 07:50:11;;;;;;;21.63;10.52;;;;;;;;;;5056611;28;25076;-77
2023/06/08 07:52:37;;;;;;;17.70;9.95;;;;;;;;;;5060795;28;25063;-76
2023/06/08 07:55:05;;;;;;;19.95;10.65;;;;;;;;;;5071027;28;25078;-76
2023/06/08 07:57:31;;;;;;;16.27;10.30;;;;;;;;;;5044143;28;25085;-77
2023/06/08 07:59:57;;;;;;;19.58;9.55;;;;;;;;;;5039470;28;25065;-78
2023/06/08 08:02:23;;;;;;;20.30;8.93;;;;;;;;;;5037750;28;25139;-76
2023/06/08 08:04:50;;;;;;;16.48;9.80;;;;;;;;;;5039560;28;25129;-73
2023/06/08 08:07:16;;;;;;;16.40;8.57;;;;;;;;;;5039868;28;25079;-74
2023/06/08 08:09:42;;;;;;;19.10;10.30;;;;;;;;;;5041494;28;25128;-76
2023/06/08 08:12:09;;;;;;;25.42;9.15;;;;;;;;;;5040276;28;25120;-76
2023/06/08 08:14:36;;;;;;;21.13;10.63;;;;;;;;;;5038890;28;25049;-76
2023/06/08 08:17:02;;;;;;;19.80;10.02;;;;;;;;;;5037738;28;25045;-76
2023/06/08 08:19:28;;;;;;;17.20;9.38;;;;;;;;;;5046984;28;25069;-77
2023/06/08 08:21:54;;;;;;;17.73;9.48;;;;;;;;;;5057857;28;25072;-74
2023/06/08 08:24:20;;;;;;;20.27;9.15;;;;;;;;;;5059366;28;25056;-73
2023/06/08 08:26:46;;;;;;;16.10;8.50;;;;;;;;;;5077183;28;25068;-79
2023/06/08 08:29:12;;;;;;;21.27;9.10;;;;;;;;;;5071947;28;25074;-77
2023/06/08 08:31:38;;;;;;;18.38;10.20;;;;;;;;;;5071899;28;25102;-76
2023/06/08 08:34:04;;;;;;;17.55;10.55;;;;;;;;;;5060205;28;25051;-75
2023/06/08 08:36:30;;;;;;;18.98;9.32;;;;;;;;;;5062921;28;25089;-78
2023/06/08 08:38:56;;;;;;;19.00;8.93;;;;;;;;;;5062377;28;25067;-77
2023/06/08 08:41:26;;;;;;;15.57;9.38;;;;;;;;;;5061185;28;25043;-77
2023/06/08 08:43:55;;;;;;;19.20;10.02;;;;;;;;;;5058211;28;25082;-77
2023/06/08 08:46:22;;;;;;;23.02;9.00;;;;;;;;;;5058287;28;25111;-76
2023/06/08 08:48:50;;;;;;;16.80;9.38;;;;;;;;;;5058554;28;25080;-75
2023/06/08 08:51:19;;;;;;;20.02;9.68;;;;;;;;;;5056331;28;25140;-75
2023/06/08 08:53:47;;;;;;;13.77;9.23;;;;;;;;;;5059093;28;25085;-75
2023/06/08 08:56:15;;;;;;;14.32;9.15;;;;;;;;;;5061424;28;25139;-76
2023/06/08 08:58:42;;;;;;;16.38;8.57;;;;;;;;;;5062438;28;24964;-80
2023/06/08 09:01:10;;;;;;;14.15;8.65;;;;;;;;;;5057165;28;25099;-76
2023/06/08 09:03:36;;;;;;;25.58;10.02;;;;;;;;;;5056366;28;25164;-76
2023/06/08 09:06:02;;;;;;;16.52;8.48;;;;;;;;;;5060358;28;25149;-79
2023/06/08 09:08:28;;;;;;;13.07;8.25;;;;;;;;;;5042312;28;25079;-77
2023/06/08 09:11:02;;;;;;;11.32;7.93;;;;;;;;;;5037929;28;25102;-76
2023/06/08 09:13:28;;;;;;;13.70;8.18;;;;;;;;;;5037381;28;25095;-74
2023/06/08 09:15:54;;;;;;;18.70;8.70;;;;;;;;;;5043874;28;25067;-76
2023/06/08 09:18:20;;;;;;;13.15;8.00;;;;;;;;;;5039145;28;25059;-76
2023/06/08 09:20:46;;;;;;;21.85;8.80;;;;;;;;;;5039011;28;25151;-79
2023/06/08 09:23:16;;;;;;;17.38;9.25;;;;;;;;;;5039121;28;25048;-78
2023/06/08 09:25:42;;;;;;;19.05;9.25;;;;;;;;;;5040831;28;25110;-74
2023/06/08 09:28:15;;;;;;;16.08;8.40;;;;;;;;;;5038775;28;25048;-75
2023/06/08 09:30:41;;;;;;;14.73;8.55;;;;;;;;;;5044712;28;25072;-77
2023/06/08 09:33:20;;;;;;;14.25;8.68;;;;;;;;;;5049214;28;25061;-77
2023/06/08 09:35:46;;;;;;;17.00;9.20;;;;;;;;;;5061983;28;25112;-70
2023/06/08 09:38:19;;;;;;;15.65;8.77;;;;;;;;;;5055381;28;25089;-77
2023/06/08 09:40:46;;;;;;;18.10;10.20;;;;;;;;;;5037825;28;25098;-80
2023/06/08 09:43:12;;;;;;;15.45;9.90;;;;;;;;;;5036400;28;25139;-78
2023/06/08 09:45:44;;;;;;;15.73;8.88;;;;;;;;;;5041918;28;25086;-76
2023/06/08 09:48:14;;;;;;;16.67;9.50;;;;;;;;;;5048412;28;25048;-75
2023/06/08 09:50:40;;;;;;;15.98;9.02;;;;;;;;;;5047368;28;25064;-75
2023/06/08 09:53:06;;;;;;;19.35;10.25;;;;;;;;;;5051844;28;25083;-78
2023/06/08 09:55:33;;;;;;;17.98;9.80;;;;;;;;;;5061119;28;25091;-76
2023/06/08 09:58:00;;;;;;;17.20;9.00;;;;;;;;;;5058610;28;25079;-77
2023/06/08 10:00:27;;;;;;;23.67;9.55;;;;;;;;;;5063681;28;25058;-72
2023/06/08 10:03:14;;;;;;;14.73;8.45;;;;;;;;;;5058437;28;25054;-76
2023/06/08 10:05:43;;;;;;;15.07;9.13;;;;;;;;;;5056272;28;25051;-76
2023/06/08 10:08:12;;;;;;;20.02;9.13;;;;;;;;;;5059320;28;25057;-76
2023/06/08 10:10:38;;;;;;;17.58;8.73;;;;;;;;;;5062738;28;25074;-77
2023/06/08 10:13:05;;;;;;;14.77;9.02;;;;;;;;;;5060800;28;25071;-75
2023/06/08 10:15:31;;;;;;;17.15;9.05;;;;;;;;;;5062126;28;25057;-77
2023/06/08 10:17:58;;;;;;;19.40;9.10;;;;;;;;;;5040711;28;25101;-76
2023/06/08 10:20:24;;;;;;;14.27;7.97;;;;;;;;;;5034320;28;25047;-76
2023/06/08 10:22:50;;;;;;;12.57;8.82;;;;;;;;;;5036549;28;25071;-77
2023/06/08 10:25:16;;;;;;;13.52;7.95;;;;;;;;;;5035405;28;25053;-77
2023/06/08 10:27:48;;;;;;;15.48;9.13;;;;;;;;;;5035341;28;25086;-77
2023/06/08 10:30:14;;;;;;;;;;;;;;;;;;5036654;28;25070;-75
2023/06/08 10:32:42;;;;;;;14.43;8.73;;;;;;;;;;5034142;28;25166;-77
2023/06/08 10:35:08;;;;;;;14.75;8.43;;;;;;;;;;5034414;28;25169;-76
2023/06/08 10:37:35;;;;;;;16.35;8.90;;;;;;;;;;5035270;28;25160;-76
2023/06/08 10:40:07;;;;;;;14.80;7.60;;;;;;;;;;5036090;28;25062;-80
2023/06/08 10:42:33;;;;;;;;;;;;;;;;;;5043255;28;25057;-74
2023/06/08 10:45:00;;;;;;;15.02;8.15;;;;;;;;;;5051135;28;24071;-77
2023/06/08 10:47:26;;;;;;;12.00;7.45;;;;;;;;;;5035466;28;25061;-77
2023/06/08 10:49:58;;;;;;;12.80;8.00;;;;;;;;;;5035690;28;25105;-75
2023/06/08 10:52:24;;;;;;;18.20;8.70;;;;;;;;;;5045804;28;25074;-77
2023/06/08 10:54:53;;;;;;;13.50;7.70;;;;;;;;;;5037154;28;25059;-74
2023/06/08 10:57:36;;;;;;;13.88;7.05;;;;;;;;;;5035406;28;25066;-75
2023/06/08 11:00:26;;;;;;;18.38;7.55;;;;;;;;;;5034338;28;25062;-76
2023/06/08 11:03:03;;;;;;;16.48;8.10;;;;;;;;;;5032919;28;25051;-75
2023/06/08 11:05:30;;;;;;;13.90;8.50;;;;;;;;;;5052886;28;25062;-78
2023/06/08 11:07:56;;;;;;;17.25;9.35;;;;;;;;;;5057511;28;25129;-78
2023/06/08 11:10:22;;;;;;;15.10;8.30;;;;;;;;;;5054942;28;25107;-76
2023/06/08 11:12:48;;;;;;;15.25;7.53;;;;;;;;;;5054617;28;25154;-78
2023/06/08 11:15:14;;;;;;;14.57;8.07;;;;;;;;;;5055713;28;25068;-78
2023/06/08 11:17:44;;;;;;;16.13;7.90;;;;;;;;;;5054078;28;25086;-77
2023/06/08 11:20:10;;;;;;;12.70;7.40;;;;;;;;;;5056802;28;25070;-76
2023/06/08 11:22:42;;;;;;;14.35;7.35;;;;;;;;;;5052508;28;25066;-75
2023/06/08 11:25:09;;;;;;;16.98;8.07;;;;;;;;;;5050803;28;25062;-77
2023/06/08 11:27:44;;;;;;;12.65;6.57;;;;;;;;;;5051717;28;25082;-77
2023/06/08 11:30:16;;;;;;;13.52;6.60;;;;;;;;;;5052143;28;25167;-78
2023/06/08 11:32:44;;;;;;;14.98;5.95;;;;;;;;;;5048895;28;25122;-77
2023/06/08 11:35:10;;;;;;;15.85;7.03;;;;;;;;;;5050073;28;25106;-79
2023/06/08 11:37:39;;;;;;;14.50;7.15;;;;;;;;;;5051658;28;25076;-76
2023/06/08 11:40:15;;;;;;;11.52;6.70;;;;;;;;;;5051817;28;25502;-76
2023/06/08 11:42:41;;;;;;;11.50;6.47;;;;;;;;;;5051805;28;25066;-77
2023/06/08 11:45:11;;;;;;;10.30;5.22;;;;;;;;;;5052152;28;25052;-77
2023/06/08 11:47:39;;;;;;;14.75;6.68;;;;;;;;;;5054520;28;25062;-77
2023/06/08 11:50:06;;;;;;;10.35;6.13;;;;;;;;;;5062766;28;25066;-74
2023/06/08 11:52:33;;;;;;;13.20;6.60;;;;;;;;;;5057754;28;25100;-76
2023/06/08 11:55:01;;;;;;;12.23;6.30;;;;;;;;;;5072452;28;25109;-77
2023/06/08 11:57:40;;;;;;;11.75;6.18;;;;;;;;;;5054633;28;25105;-76
2023/06/08 12:00:09;;;;;;;11.50;5.28;;;;;;;;;;5054819;28;25059;-76
2023/06/08 12:02:36;;;;;;;10.90;5.85;;;;;;;;;;5057265;28;25064;-77
2023/06/08 12:05:02;;;;;;;11.35;5.32;;;;;;;;;;5053531;28;25081;-75
2023/06/08 12:07:28;;;;;;;11.90;6.30;;;;;;;;;;5053865;28;25054;-75
2023/06/08 12:09:54;;;;;;;11.70;6.03;;;;;;;;;;5039068;28;25133;-76
2023/06/08 12:12:22;;;;;;;12.27;6.95;;;;;;;;;;5052084;28;25061;-76
2023/06/08 12:14:48;;;;;;;13.88;6.53;;;;;;;;;;5055495;28;25070;-76
2023/06/08 12:17:15;;;;;;;11.15;5.00;;;;;;;;;;5055011;28;25107;-74
2023/06/08 12:19:45;;;;;;;7.93;4.65;;;;;;;;;;5058564;28;25071;-76
2023/06/08 12:22:11;;;;;;;7.65;3.88;;;;;;;;;;5057032;28;25066;-73
2023/06/08 12:24:37;;;;;;;10.60;5.30;;;;;;;;;;5042469;28;25052;-75
2023/06/08 12:27:06;;;;;;;11.75;5.07;;;;;;;;;;5060428;28;25115;-76
2023/06/08 12:29:32;;;;;;;8.55;5.30;;;;;;;;;;5056849;28;25144;-75
2023/06/08 12:31:59;;;;;;;12.20;5.68;;;;;;;;;;5055154;28;25170;-73
2023/06/08 12:34:25;;;;;;;11.32;6.30;;;;;;;;;;5040412;28;25054;-76
2023/06/08 12:36:51;;;;;;;17.88;7.93;;;;;;;;;;5058433;28;25189;-75
2023/06/08 12:39:17;;;;;;;12.32;6.63;;;;;;;;;;5055805;28;25067;-74
2023/06/08 12:41:43;;;;;;;14.50;6.40;;;;;;;;;;5058579;28;25082;-76
2023/06/08 12:44:10;;;;;;;16.88;7.53;;;;;;;;;;5043305;28;25080;-77
2023/06/08 12:46:36;;;;;;;19.13;7.00;;;;;;;;;;5039554;28;25061;-73
2023/06/08 12:49:03;;;;;;;14.07;7.47;;;;;;;;;;5038300;28;25169;-76
2023/06/08 12:51:29;;;;;;;15.07;7.57;;;;;;;;;;5038404;28;25073;-77
2023/06/08 12:53:56;;;;;;;21.98;7.10;;;;;;;;;;5037972;28;25059;-77
2023/06/08 12:56:22;;;;;;;18.00;6.60;;;;;;;;;;5040989;28;25067;-75
2023/06/08 12:58:48;;;;;;;18.13;6.65;;;;;;;;;;5041169;28;25066;-75
2023/06/08 13:01:14;;;;;;;12.75;6.47;;;;;;;;;;5048508;28;24846;-74
2023/06/08 13:03:42;;;;;;;13.35;6.65;;;;;;;;;;5048299;28;25076;-75
2023/06/08 13:06:08;;;;;;;10.48;5.75;;;;;;;;;;5036458;28;25057;-74
2023/06/08 13:08:34;;;;;;;20.17;7.18;;;;;;;;;;5035065;28;25122;-74
2023/06/08 13:11:00;;;;;;;13.15;6.68;;;;;;;;;;5039767;28;25081;-76
2023/06/08 13:13:27;;;;;;;18.92;6.25;;;;;;;;;;5039714;28;25058;-74
2023/06/08 13:15:54;;;;;;;14.77;7.13;;;;;;;;;;5037962;28;25060;-76
2023/06/08 13:18:22;;;;;;;13.60;5.78;;;;;;;;;;5035978;28;25082;-77
2023/06/08 13:20:49;;;;;;;12.32;6.10;;;;;;;;;;5036802;28;25069;-73
2023/06/08 13:23:15;;;;;;;13.40;5.65;;;;;;;;;;5035244;28;25081;-74
2023/06/08 13:25:42;;;;;;;15.05;6.15;;;;;;;;;;5036224;28;25062;-75
2023/06/08 13:28:09;;;;;;;21.88;7.72;;;;;;;;;;5038124;28;25075;-74
2023/06/08 13:30:35;;;;;;;19.15;7.50;;;;;;;;;;5037708;28;25054;-72
2023/06/08 13:33:01;;;;;;;17.88;6.72;;;;;;;;;;5038144;28;25116;-73
2023/06/08 13:35:28;;;;;;;13.70;6.65;;;;;;;;;;5038951;28;25044;-74
2023/06/08 13:37:54;;;;;;;18.65;6.00;;;;;;;;;;5036987;28;25074;-73
2023/06/08 13:40:20;;;;;;;15.32;6.55;;;;;;;;;;5032730;28;25039;-73
2023/06/08 13:42:46;;;;;;;13.20;6.75;;;;;;;;;;5043096;28;25157;-73
2023/06/08 13:45:12;;;;;;;10.70;6.35;;;;;;;;;;5052997;28;25060;-75
2023/06/08 13:47:38;;;;;;;15.68;6.28;;;;;;;;;;5042003;28;24969;-73
2023/06/08 13:50:05;;;;;;;13.18;6.90;;;;;;;;;;5039625;28;25073;-72
2023/06/08 13:52:33;;;;;;;15.05;6.97;;;;;;;;;;5043343;28;25066;-74
2023/06/08 13:54:59;;;;;;;13.57;6.88;;;;;;;;;;5041689;28;25059;-76
2023/06/08 13:57:25;;;;;;;13.02;6.70;;;;;;;;;;5046164;28;25067;-74
2023/06/08 13:59:51;;;;;;;12.90;7.15;;;;;;;;;;5044136;28;25068;-75
2023/06/08 14:02:17;;;;;;;17.75;7.75;;;;;;;;;;5051855;28;25046;-73
2023/06/08 14:04:43;;;;;;;14.88;6.20;;;;;;;;;;5060045;28;25071;-73
2023/06/08 14:07:09;;;;;;;15.93;6.97;;;;;;;;;;5055588;28;25172;-73
2023/06/08 14:09:35;;;;;;;16.35;6.43;;;;;;;;;;5056804;28;25157;-75
2023/06/08 14:12:02;;;;;;;14.80;6.60;;;;;;;;;;5056651;28;25060;-74
2023/06/08 14:14:28;;;;;;;13.70;7.15;;;;;;;;;;5037439;28;25074;-72
2023/06/08 14:16:54;;;;;;;16.35;6.63;;;;;;;;;;5058143;28;25062;-74
2023/06/08 14:19:20;;;;;;;12.88;6.85;;;;;;;;;;5055238;28;25094;-75
2023/06/08 14:21:46;;;;;;;13.70;6.63;;;;;;;;;;5055592;28;25147;-74
2023/06/08 14:24:12;;;;;;;17.10;6.15;;;;;;;;;;5056702;28;25121;-80